Time;durP1;ratioP1;P1;durP2;ratioP2;P2;SDS_P1;SDS_P2;PMS_P1;PMS_P2;Temp;Humidity;BMP_temperature;BMP_pressure;BME280_temperature;BME280_humidity;BME280_pressure;Samples;Min_cycle;Max_cycle;Signal;HPM_P1;HPM_P2
2023/12/25 00:01:39;;;;;;;2.95;0.93;;;;;;;11.87;100.00;99361.59;6036870;28;20186;-74
2023/12/25 00:04:50;;;;;;;5.90;1.33;;;;;;;11.70;100.00;99345.03;6037231;28;20045;-75
2023/12/25 00:07:51;;;;;;;3.92;1.27;;;;;;;11.73;100.00;99354.47;6037269;28;20034;-74
2023/12/25 00:10:52;;;;;;;2.90;1.00;;;;;;;11.79;100.00;99348.41;6052902;28;20708;-74
2023/12/25 00:13:54;;;;;;;3.55;1.10;;;;;;;11.80;100.00;99372.13;6054379;28;20033;-74
2023/12/25 00:20:50;;;;;;;3.17;1.08;;;;;;;11.64;100.00;99343.09;6052292;28;20049;-74
2023/12/25 00:24:09;;;;;;;1.55;0.70;;;;;;;11.64;100.00;99329.81;6036854;28;20480;-74
2023/12/25 00:27:11;;;;;;;1.98;0.77;;;;;;;11.50;100.00;99343.13;6049503;28;20038;-73
2023/12/25 00:30:16;;;;;;;4.75;1.13;;;;;;;11.35;100.00;99351.09;6032343;28;20032;-74
2023/12/25 00:33:30;;;;;;;2.33;1.13;;;;;;;11.38;100.00;99353.41;6037701;28;20563;-73
2023/12/25 00:36:31;;;;;;;4.15;1.20;;;;;;;11.33;100.00;99361.09;6053245;28;20037;-75
2023/12/25 00:39:45;;;;;;;3.45;1.15;;;;;;;11.33;100.00;99369.06;6048955;28;20046;-74
2023/12/25 00:42:50;;;;;;;5.78;1.27;;;;;;;11.31;100.00;99349.81;6051113;28;20046;-74
2023/12/25 00:46:06;;;;;;;3.97;1.70;;;;;;;11.30;100.00;99349.03;6036526;28;20038;-73
2023/12/25 00:49:07;;;;;;;4.13;1.20;;;;;;;11.25;100.00;99342.63;6055354;28;20091;-74
2023/12/25 00:52:17;;;;;;;6.93;1.45;;;;;;;11.29;100.00;99362.47;6036323;28;20038;-75
2023/12/25 00:55:18;;;;;;;3.35;1.25;;;;;;;11.46;100.00;99373.72;5994839;28;20041;-74
2023/12/25 00:58:22;;;;;;;3.13;1.00;;;;;;;11.57;100.00;99382.03;6048913;28;20408;-74
2023/12/25 01:01:23;;;;;;;2.88;0.85;;;;;;;11.55;100.00;99368.09;6035717;28;20437;-75
2023/12/25 01:04:19;;;;;;;4.45;1.08;;;;;;;11.63;100.00;99381.25;6041338;28;20042;-73
2023/12/25 01:07:15;;;;;;;6.47;1.42;;;;;;;11.49;100.00;99376.00;6052091;28;20742;-74
2023/12/25 01:10:13;;;;;;;6.95;1.40;;;;;;;11.23;100.00;99373.78;6053723;28;20421;-73
2023/12/25 01:13:09;;;;;;;3.00;1.40;;;;;;;10.99;100.00;99389.97;6035624;28;20034;-73
2023/12/25 01:16:04;;;;;;;4.70;1.10;;;;;;;10.80;100.00;99387.84;6051550;28;20085;-74
2023/12/25 01:19:00;;;;;;;6.13;1.30;;;;;;;10.66;100.00;99402.72;6051080;28;20034;-74
2023/12/25 01:21:55;;;;;;;2.50;1.20;;;;;;;10.55;100.00;99398.66;6050737;28;20041;-74
2023/12/25 01:24:50;;;;;;;3.13;1.23;;;;;;;10.53;100.00;99392.72;6055210;28;21930;-73
2023/12/25 01:27:46;;;;;;;4.83;1.30;;;;;;;10.48;100.00;99373.88;6054128;28;20081;-75
2023/12/25 01:30:42;;;;;;;5.70;1.33;;;;;;;10.57;100.00;99383.38;6053315;28;20037;-74
2023/12/25 01:33:37;;;;;;;4.17;1.13;;;;;;;10.63;100.00;99379.19;6053980;28;20036;-73
2023/12/25 01:36:32;;;;;;;4.23;1.07;;;;;;;10.70;100.00;99357.13;6052501;28;20045;-74
2023/12/25 01:39:28;;;;;;;5.20;1.27;;;;;;;10.74;100.00;99395.50;6052201;28;20045;-73
2023/12/25 01:42:23;;;;;;;2.60;1.03;;;;;;;10.84;100.00;99378.53;6051694;28;20080;-74
2023/12/25 01:45:18;;;;;;;2.63;0.93;;;;;;;10.89;100.00;99384.13;6049168;28;20071;-73
2023/12/25 01:48:14;;;;;;;3.70;1.17;;;;;;;10.98;100.00;99385.69;6053882;28;20316;-75
2023/12/25 01:51:09;;;;;;;5.73;1.53;;;;;;;10.94;100.00;99379.09;6049047;28;20040;-73
2023/12/25 01:54:06;;;;;;;5.05;1.02;;;;;;;11.03;100.00;99385.97;6035952;28;20308;-74
2023/12/25 01:57:04;;;;;;;5.90;1.38;;;;;;;11.03;100.00;99394.75;6058146;28;20041;-73
2023/12/25 02:00:00;;;;;;;3.17;0.88;;;;;;;11.06;100.00;99401.53;6052493;28;20485;-74
2023/12/25 02:02:56;;;;;;;1.23;0.53;;;;;;;11.04;100.00;99387.59;6049720;28;20042;-73
2023/12/25 02:05:57;;;;;;;4.32;1.23;;;;;;;11.08;100.00;99372.97;6037805;28;20556;-74
2023/12/25 02:08:54;;;;;;;1.65;0.88;;;;;;;11.01;100.00;99374.69;6055025;28;20025;-75
2023/12/25 02:11:50;;;;;;;3.45;0.95;;;;;;;11.14;100.00;99388.97;6050191;28;20776;-74
2023/12/25 02:14:45;;;;;;;2.25;0.70;;;;;;;11.13;100.00;99399.78;6036014;28;20058;-74
2023/12/25 02:17:40;;;;;;;2.23;0.77;;;;;;;11.07;100.00;99405.81;6053528;28;20061;-74
2023/12/25 02:20:36;;;;;;;4.07;1.20;;;;;;;11.14;100.00;99407.56;6048681;28;20794;-74
2023/12/25 02:23:34;;;;;;;2.87;0.87;;;;;;;11.22;100.00;99411.97;6055690;28;20291;-74
2023/12/25 02:26:29;;;;;;;3.65;1.00;;;;;;;11.29;100.00;99410.22;6030308;28;20268;-74
2023/12/25 02:29:25;;;;;;;2.37;0.73;;;;;;;11.33;100.00;99395.59;6051341;28;20030;-74
2023/12/25 02:32:20;;;;;;;3.23;1.00;;;;;;;11.42;100.00;99404.25;6054472;28;20030;-74
2023/12/25 02:35:16;;;;;;;3.00;0.70;;;;;;;11.46;100.00;99406.38;6054842;28;20037;-74
2023/12/25 02:38:26;;;;;;;1.40;0.80;;;;;;;11.45;100.00;99415.34;6055510;28;20044;-75
2023/12/25 02:41:26;;;;;;;3.20;0.80;;;;;;;11.44;100.00;99408.38;6053858;28;20030;-75
2023/12/25 02:44:22;;;;;;;2.05;0.88;;;;;;;11.48;100.00;99420.28;6020837;28;20112;-74
2023/12/25 02:47:27;;;;;;;3.50;0.65;;;;;;;11.47;100.00;99417.84;6054319;28;20523;-75
2023/12/25 02:50:26;;;;;;;1.83;0.70;;;;;;;11.39;100.00;99400.16;6039829;28;20053;-74
2023/12/25 02:53:31;;;;;;;1.50;0.82;;;;;;;11.46;100.00;99418.84;6048678;28;20382;-75
2023/12/25 02:56:26;;;;;;;3.90;0.80;;;;;;;11.53;100.00;99417.91;6054029;28;20029;-73
2023/12/25 02:59:21;;;;;;;2.30;0.67;;;;;;;11.59;100.00;99424.31;6055668;28;20044;-75
2023/12/25 03:02:27;;;;;;;4.70;0.80;;;;;;;11.50;100.00;99425.41;6055880;28;20146;-75
2023/12/25 03:05:26;;;;;;;1.30;0.73;;;;;;;11.59;100.00;99438.41;6044506;28;20049;-75
2023/12/25 03:08:21;;;;;;;3.40;0.82;;;;;;;11.51;100.00;99430.56;6054189;28;20049;-74
2023/12/25 03:11:20;;;;;;;3.50;0.80;;;;;;;11.57;100.00;99435.13;6056661;28;20069;-75
2023/12/25 03:14:34;;;;;;;6.63;1.02;;;;;;;11.61;100.00;99440.88;6039673;28;20786;-75
2023/12/25 03:17:41;;;;;;;3.10;0.90;;;;;;;11.61;100.00;99441.72;6055471;28;20030;-75
2023/12/25 03:20:59;;;;;;;;;;;;;;;11.57;100.00;99455.53;6055157;28;20045;-74
2023/12/25 03:23:57;;;;;;;3.50;1.00;;;;;;;11.46;100.00;99443.56;6055566;28;19967;-74
2023/12/25 03:27:05;;;;;;;4.90;1.35;;;;;;;11.45;100.00;99439.25;6040278;28;20040;-73
2023/12/25 03:33:22;;;;;;;6.03;0.80;;;;;;;11.42;100.00;99428.97;6030812;28;20046;-75
2023/12/25 03:36:18;;;;;;;3.70;0.90;;;;;;;11.42;100.00;99452.88;6050727;28;20036;-74
2023/12/25 03:39:39;;;;;;;1.75;0.70;;;;;;;11.30;100.00;99454.34;6036508;28;20032;-75
2023/12/25 03:42:34;;;;;;;4.75;1.10;;;;;;;11.36;100.00;99466.88;6054216;28;20034;-74
2023/12/25 03:45:30;;;;;;;2.40;1.00;;;;;;;11.34;100.00;99456.44;6039725;28;20574;-75
2023/12/25 03:48:26;;;;;;;2.08;0.70;;;;;;;11.36;100.00;99466.88;6038355;28;20524;-74
2023/12/25 03:51:47;;;;;;;1.83;0.50;;;;;;;11.15;100.00;99437.56;6058096;28;20069;-75
2023/12/25 03:55:11;;;;;;;3.30;0.90;;;;;;;11.36;100.00;99445.63;6021955;28;20072;-74
2023/12/25 03:58:10;;;;;;;4.68;0.88;;;;;;;11.23;100.00;99453.41;6052377;28;20064;-74
2023/12/25 04:01:28;;;;;;;3.55;0.80;;;;;;;11.33;100.00;99465.41;6039439;28;20037;-74
2023/12/25 04:04:40;;;;;;;3.50;0.90;;;;;;;11.30;100.00;99457.00;6051970;28;20417;-73
2023/12/25 04:07:42;;;;;;;4.20;0.82;;;;;;;11.20;100.00;99443.16;6055576;28;20120;-74
2023/12/25 04:10:37;;;;;;;3.42;0.80;;;;;;;11.23;100.00;99456.06;6058069;28;20037;-75
2023/12/25 04:13:33;;;;;;;3.88;0.95;;;;;;;11.18;100.00;99466.41;6055204;28;20029;-72
2023/12/25 04:16:34;;;;;;;3.08;0.93;;;;;;;11.14;100.00;99475.72;6035974;28;20048;-75
2023/12/25 04:19:40;;;;;;;6.38;1.10;;;;;;;11.05;100.00;99444.97;6048891;28;20177;-74
2023/12/25 04:22:36;;;;;;;1.75;0.63;;;;;;;11.22;100.00;99467.69;6032164;28;20037;-74
2023/12/25 04:25:31;;;;;;;1.33;0.60;;;;;;;11.29;100.00;99484.53;6050399;28;20073;-74
2023/12/25 04:28:27;;;;;;;4.43;0.77;;;;;;;11.31;100.00;99477.22;6037382;28;20104;-74
2023/12/25 04:31:22;;;;;;;4.50;1.03;;;;;;;11.17;100.00;99470.88;6054622;28;20045;-73
2023/12/25 04:34:17;;;;;;;2.40;0.70;;;;;;;11.12;100.00;99493.63;6052918;28;20056;-74
2023/12/25 04:37:13;;;;;;;3.03;0.80;;;;;;;11.15;100.00;99469.41;6055177;28;20395;-74
2023/12/25 04:40:09;;;;;;;3.17;0.60;;;;;;;11.13;100.00;99495.31;6055282;28;20029;-74
2023/12/25 04:43:04;;;;;;;3.55;0.70;;;;;;;11.07;100.00;99488.06;6056086;28;20496;-74
2023/12/25 04:46:02;;;;;;;1.90;0.80;;;;;;;11.17;100.00;99523.13;6052067;28;20037;-73
2023/12/25 04:48:57;;;;;;;3.60;1.08;;;;;;;11.11;100.00;99513.22;6053482;28;20111;-73
2023/12/25 04:51:52;;;;;;;3.47;0.70;;;;;;;11.12;100.00;99497.13;6054717;28;20504;-73
2023/12/25 04:54:48;;;;;;;2.80;0.90;;;;;;;11.13;100.00;99503.25;6051370;28;20120;-73
2023/12/25 04:57:43;;;;;;;3.83;0.77;;;;;;;11.09;100.00;99499.31;6052985;28;20049;-74
2023/12/25 05:00:38;;;;;;;1.87;0.60;;;;;;;11.01;100.00;99502.84;6055867;28;20084;-73
2023/12/25 05:03:34;;;;;;;4.00;0.93;;;;;;;11.01;100.00;99502.84;6054879;28;20647;-73
2023/12/25 05:06:44;;;;;;;4.17;1.00;;;;;;;10.86;100.00;99466.69;6034610;28;20544;-74
2023/12/25 05:09:46;;;;;;;1.60;0.70;;;;;;;10.95;100.00;99502.75;6052667;28;20065;-74
2023/12/25 05:12:44;;;;;;;1.75;0.63;;;;;;;11.04;100.00;99514.94;6051853;28;21622;-74
2023/12/25 05:15:47;;;;;;;3.28;1.15;;;;;;;10.93;100.00;99510.03;6034819;28;20116;-74
2023/12/25 05:18:42;;;;;;;2.60;0.80;;;;;;;10.77;100.00;99514.47;6054240;28;20030;-74
2023/12/25 05:21:38;;;;;;;2.30;1.00;;;;;;;10.73;100.00;99515.81;6050920;28;20069;-74
2023/12/25 05:24:36;;;;;;;2.27;0.80;;;;;;;10.76;100.00;99526.06;6052194;28;20030;-74
2023/12/25 05:27:34;;;;;;;3.65;0.88;;;;;;;10.65;100.00;99507.91;6033696;28;20473;-74
2023/12/25 05:30:29;;;;;;;4.40;1.20;;;;;;;10.66;100.00;99501.63;6033309;28;20030;-74
2023/12/25 05:33:24;;;;;;;5.13;0.90;;;;;;;10.60;100.00;99520.06;6052974;28;20042;-74
2023/12/25 05:36:23;;;;;;;7.00;1.00;;;;;;;10.52;100.00;99522.75;6052932;28;20048;-74
2023/12/25 05:39:20;;;;;;;3.20;0.90;;;;;;;10.38;100.00;99503.13;6050994;28;20275;-75
2023/12/25 05:42:16;;;;;;;2.80;1.30;;;;;;;10.33;100.00;99516.06;6035418;28;20116;-74
2023/12/25 05:45:11;;;;;;;3.87;0.90;;;;;;;10.29;100.00;99533.34;6054616;28;20029;-75
2023/12/25 05:48:12;;;;;;;1.20;0.63;;;;;;;10.25;100.00;99525.88;6054150;28;20432;-73
2023/12/25 05:51:13;;;;;;;2.85;1.00;;;;;;;10.14;100.00;99533.22;6053555;28;20037;-75
2023/12/25 05:54:12;;;;;;;3.70;0.98;;;;;;;10.10;100.00;99544.31;6050275;28;20030;-74
2023/12/25 05:57:07;;;;;;;5.85;1.23;;;;;;;10.09;100.00;99545.31;6052332;28;20030;-74
2023/12/25 06:00:03;;;;;;;3.33;1.00;;;;;;;10.04;100.00;99552.94;6035815;28;20036;-74
2023/12/25 06:02:58;;;;;;;4.43;1.30;;;;;;;9.90;100.00;99558.94;6049773;28;20044;-73
2023/12/25 06:05:53;;;;;;;8.73;1.30;;;;;;;9.76;100.00;99568.41;6051787;28;20049;-73
2023/12/25 06:08:49;;;;;;;3.17;1.00;;;;;;;9.61;100.00;99578.03;6055317;28;20026;-73
2023/12/25 06:11:44;;;;;;;2.53;1.23;;;;;;;9.49;100.00;99564.31;6042033;28;20029;-73
2023/12/25 06:14:39;;;;;;;4.27;1.00;;;;;;;9.50;100.00;99588.97;6056833;28;20269;-74
2023/12/25 06:17:35;;;;;;;3.17;1.10;;;;;;;9.50;100.00;99588.97;6055494;28;20287;-74
2023/12/25 06:20:31;;;;;;;4.75;1.05;;;;;;;9.37;100.00;99578.91;6058154;28;20038;-73
2023/12/25 06:23:26;;;;;;;2.23;0.83;;;;;;;9.43;100.00;99575.56;6039193;28;20079;-74
2023/12/25 06:26:21;;;;;;;4.77;1.77;;;;;;;9.49;100.00;99595.25;6052831;28;20034;-73
2023/12/25 06:29:17;;;;;;;3.97;1.10;;;;;;;9.51;100.00;99588.78;6057942;28;20289;-74
2023/12/25 06:32:13;;;;;;;3.78;0.95;;;;;;;9.59;100.00;99580.03;6061071;28;20672;-73
2023/12/25 06:35:08;;;;;;;2.83;1.33;;;;;;;9.59;100.00;99594.06;6055018;28;20068;-74
2023/12/25 06:38:03;;;;;;;5.67;1.70;;;;;;;9.55;100.00;99591.94;6055127;28;20057;-73
2023/12/25 06:41:00;;;;;;;9.90;1.10;;;;;;;9.53;100.00;99588.63;6055541;28;20489;-73
2023/12/25 06:43:55;;;;;;;3.22;1.30;;;;;;;9.59;100.00;99596.72;6057603;28;20180;-74
2023/12/25 06:46:53;;;;;;;2.35;1.05;;;;;;;9.56;100.00;99596.25;6039446;28;20034;-73
2023/12/25 06:49:51;;;;;;;4.30;0.95;;;;;;;9.60;100.00;99586.97;6056983;28;20069;-74
2023/12/25 06:52:46;;;;;;;4.47;0.90;;;;;;;9.61;100.00;99603.69;6038109;28;20158;-73
2023/12/25 06:55:42;;;;;;;4.00;1.00;;;;;;;9.51;100.00;99595.94;6051560;28;20059;-73
2023/12/25 06:58:41;;;;;;;4.27;1.10;;;;;;;9.48;100.00;99612.94;6055777;28;20029;-74
2023/12/25 07:01:37;;;;;;;2.97;0.95;;;;;;;9.51;100.00;99609.97;6036493;28;20084;-74
2023/12/25 07:04:32;;;;;;;2.37;1.00;;;;;;;9.59;100.00;99615.25;6054476;28;20046;-74
2023/12/25 07:07:28;;;;;;;2.80;1.05;;;;;;;9.67;100.00;99619.72;6053272;28;20545;-73
2023/12/25 07:10:23;;;;;;;3.90;1.20;;;;;;;9.64;100.00;99611.28;6056484;28;20041;-73
2023/12/25 07:13:19;;;;;;;4.57;1.20;;;;;;;9.74;100.00;99635.75;6054851;28;20288;-73
2023/12/25 07:16:21;;;;;;;2.47;1.10;;;;;;;9.81;100.00;99642.84;6045400;28;20113;-75
2023/12/25 07:19:16;;;;;;;5.22;1.40;;;;;;;9.76;100.00;99654.94;6054504;28;20037;-73
2023/12/25 07:22:12;;;;;;;4.70;1.42;;;;;;;9.58;100.00;99655.97;6054592;28;20046;-74
2023/12/25 07:25:07;;;;;;;7.15;1.30;;;;;;;9.55;100.00;99663.38;6052779;28;20441;-74
2023/12/25 07:28:03;;;;;;;6.47;1.10;;;;;;;9.46;100.00;99673.13;6056512;28;20104;-73
2023/12/25 07:31:00;;;;;;;4.35;1.30;;;;;;;9.44;100.00;99688.38;6038138;28;20034;-74
2023/12/25 07:33:56;;;;;;;5.05;1.20;;;;;;;9.40;100.00;99667.69;6060599;28;20400;-73
2023/12/25 07:36:52;;;;;;;5.22;1.38;;;;;;;9.49;100.00;99662.22;6026413;28;20661;-74
2023/12/25 07:39:48;;;;;;;6.15;1.20;;;;;;;9.52;100.00;99679.59;6024752;28;20068;-73
2023/12/25 07:42:43;;;;;;;3.23;1.40;;;;;;;9.53;100.00;99687.38;6039769;28;20511;-73
2023/12/25 07:45:39;;;;;;;2.70;0.90;;;;;;;9.55;100.00;99709.22;6055831;28;20495;-74
2023/12/25 07:48:35;;;;;;;3.85;1.20;;;;;;;9.48;100.00;99720.63;6059692;28;20041;-74
2023/12/25 07:51:30;;;;;;;7.20;1.42;;;;;;;9.36;100.00;99703.41;6060615;28;20550;-75
2023/12/25 07:54:25;;;;;;;4.17;1.83;;;;;;;9.31;100.00;99695.13;6053838;28;20048;-74
2023/12/25 07:57:21;;;;;;;7.53;1.50;;;;;;;9.39;100.00;99718.94;6060970;28;20032;-73
2023/12/25 08:00:16;;;;;;;3.85;1.83;;;;;;;9.30;100.00;99691.66;6060384;28;20055;-73
2023/12/25 08:03:12;;;;;;;2.30;1.10;;;;;;;9.24;100.00;99686.19;6060873;28;20061;-73
2023/12/25 08:06:08;;;;;;;5.78;1.30;;;;;;;9.26;100.00;99721.25;6057883;28;20116;-73
2023/12/25 08:09:04;;;;;;;5.03;1.27;;;;;;;9.24;100.00;99710.81;6054402;28;20446;-75
2023/12/25 08:11:59;;;;;;;7.03;1.67;;;;;;;9.28;100.00;99738.59;6058886;28;20034;-73
2023/12/25 08:14:55;;;;;;;2.37;1.30;;;;;;;9.29;100.00;99745.56;6054836;28;20061;-73
2023/12/25 08:17:53;;;;;;;7.50;1.43;;;;;;;9.35;100.00;99755.47;6057551;28;20084;-74
2023/12/25 08:20:48;;;;;;;4.95;1.55;;;;;;;9.34;100.00;99737.97;6056602;28;20045;-74
2023/12/25 08:23:44;;;;;;;3.45;1.10;;;;;;;9.31;100.00;99738.28;6055119;28;20116;-73
2023/12/25 08:26:43;;;;;;;3.80;1.10;;;;;;;9.31;100.00;99733.00;6038543;28;20404;-74
2023/12/25 08:29:38;;;;;;;2.78;1.35;;;;;;;9.31;100.00;99742.75;6037709;28;20056;-72
2023/12/25 08:32:33;;;;;;;10.53;1.77;;;;;;;9.35;100.00;99747.53;6063929;28;20112;-73
2023/12/25 08:35:29;;;;;;;1.77;0.97;;;;;;;9.43;100.00;99754.69;6035052;28;20041;-73
2023/12/25 08:38:24;;;;;;;3.37;1.10;;;;;;;9.37;100.00;99727.06;6059893;28;20920;-74
2023/12/25 08:41:19;;;;;;;6.57;1.20;;;;;;;9.48;100.00;99745.25;6051267;28;20273;-73
2023/12/25 08:44:15;;;;;;;4.70;1.13;;;;;;;9.47;100.00;99743.59;6050963;28;20179;-74
2023/12/25 08:47:10;;;;;;;4.43;1.23;;;;;;;9.53;100.00;99758.84;6035383;28;20045;-73
2023/12/25 08:50:08;;;;;;;2.70;0.90;;;;;;;9.52;100.00;99736.00;6056399;28;20300;-74
2023/12/25 08:53:04;;;;;;;6.50;1.20;;;;;;;9.62;100.00;99756.22;6055597;28;20053;-74
2023/12/25 08:56:00;;;;;;;2.77;0.97;;;;;;;9.57;100.00;99760.16;6056404;28;20405;-73
2023/12/25 08:58:58;;;;;;;3.70;1.20;;;;;;;9.76;100.00;99782.00;6060072;28;20033;-74
2023/12/25 09:01:54;;;;;;;3.40;1.40;;;;;;;9.73;100.00;99771.78;6053966;28;20033;-74
2023/12/25 09:04:49;;;;;;;2.27;1.10;;;;;;;9.77;100.00;99791.63;6052038;28;20504;-74
2023/12/25 09:07:45;;;;;;;4.53;1.20;;;;;;;9.81;100.00;99791.13;6054955;28;20037;-73
2023/12/25 09:10:40;;;;;;;3.33;1.02;;;;;;;9.86;100.00;99798.59;6055506;28;20152;-73
2023/12/25 09:13:36;;;;;;;2.10;1.17;;;;;;;9.89;100.00;99817.59;6054755;28;20472;-74
2023/12/25 09:16:31;;;;;;;4.53;0.93;;;;;;;9.87;100.00;99813.47;6055137;28;20037;-75
2023/12/25 09:19:26;;;;;;;4.90;0.90;;;;;;;9.94;100.00;99812.69;6054400;28;20279;-75
2023/12/25 09:22:24;;;;;;;3.50;0.83;;;;;;;9.99;100.00;99830.72;6053574;28;20276;-74
2023/12/25 09:25:19;;;;;;;3.67;0.98;;;;;;;9.94;100.00;99814.50;6053003;28;20485;-73
2023/12/25 09:28:15;;;;;;;4.57;1.20;;;;;;;9.99;100.00;99822.78;6059540;28;20069;-73
2023/12/25 09:31:11;;;;;;;4.07;1.02;;;;;;;10.01;100.00;99812.84;6061873;28;20036;-73
2023/12/25 09:34:06;;;;;;;3.90;1.10;;;;;;;10.01;100.00;99816.31;6053248;28;20385;-75
2023/12/25 09:37:02;;;;;;;7.13;1.30;;;;;;;10.04;100.00;99829.22;6053873;28;20036;-75
2023/12/25 09:39:57;;;;;;;3.03;1.10;;;;;;;9.98;100.00;99827.22;6056205;28;20030;-74
2023/12/25 09:42:53;;;;;;;9.18;1.23;;;;;;;10.00;100.00;99813.84;6050885;28;20125;-74
2023/12/25 09:45:48;;;;;;;7.32;1.73;;;;;;;9.93;100.00;99811.00;6035837;28;20138;-74
2023/12/25 09:48:45;;;;;;;4.03;1.08;;;;;;;9.99;100.00;99841.31;6053056;28;20034;-74
2023/12/25 09:51:45;;;;;;;4.22;1.30;;;;;;;9.95;100.00;99848.75;6036090;28;20044;-74
2023/12/25 09:54:41;;;;;;;4.05;1.13;;;;;;;9.96;100.00;99838.97;6050727;28;20519;-74
2023/12/25 09:57:43;;;;;;;2.15;1.10;;;;;;;10.03;100.00;99834.66;6035395;28;20370;-75
2023/12/25 10:00:53;;;;;;;7.13;1.33;;;;;;;9.99;100.00;99818.31;6031355;28;20148;-75
2023/12/25 10:04:03;;;;;;;4.95;1.30;;;;;;;10.13;100.00;99816.84;6035943;28;20030;-75
2023/12/25 10:06:59;;;;;;;4.28;1.05;;;;;;;10.37;100.00;99831.91;6050287;28;20030;-74
2023/12/25 10:09:57;;;;;;;6.17;0.90;;;;;;;10.50;100.00;99837.53;6048652;28;20038;-74
2023/12/25 10:12:52;;;;;;;7.38;1.00;;;;;;;10.58;100.00;99846.31;6049284;28;20034;-75
2023/12/25 10:15:48;;;;;;;4.30;0.90;;;;;;;10.68;100.00;99852.25;6051193;28;20544;-74
2023/12/25 10:18:44;;;;;;;4.10;1.20;;;;;;;10.67;100.00;99834.72;6032971;28;20105;-73
2023/12/25 10:21:44;;;;;;;9.65;1.23;;;;;;;10.75;100.00;99847.13;6051774;28;20052;-74
2023/12/25 10:24:39;;;;;;;4.45;1.08;;;;;;;10.76;100.00;99840.84;6050089;28;20033;-74
2023/12/25 10:27:36;;;;;;;3.70;1.05;;;;;;;10.84;100.00;99855.91;6050589;28;20092;-74
2023/12/25 10:30:32;;;;;;;3.88;0.90;;;;;;;10.73;100.00;99844.63;6051462;28;20026;-75
2023/12/25 10:33:28;;;;;;;8.07;1.20;;;;;;;10.70;100.00;99855.59;6052659;28;20033;-75
2023/12/25 10:36:24;;;;;;;5.13;1.00;;;;;;;10.69;100.00;99853.94;6030258;28;20539;-75
2023/12/25 10:39:33;;;;;;;4.22;0.80;;;;;;;10.64;100.00;99855.41;6054860;28;20026;-75
2023/12/25 10:42:28;;;;;;;1.52;0.90;;;;;;;10.75;100.00;99853.25;6046567;28;20030;-73
2023/12/25 10:45:25;;;;;;;3.00;0.77;;;;;;;10.69;100.00;99839.84;6047352;28;20049;-74
2023/12/25 10:48:22;;;;;;;3.55;1.13;;;;;;;10.73;100.00;99831.38;6016541;28;20030;-73
2023/12/25 10:51:32;;;;;;;1.98;1.00;;;;;;;10.70;100.00;99834.38;6054922;28;20034;-74
2023/12/25 10:54:27;;;;;;;4.95;1.00;;;;;;;10.86;100.00;99835.34;6045819;28;20060;-73
2023/12/25 10:57:23;;;;;;;4.25;1.15;;;;;;;11.01;100.00;99838.91;6049463;28;20037;-73
2023/12/25 11:00:20;;;;;;;9.95;1.52;;;;;;;11.10;100.00;99844.06;6033035;28;20030;-74
2023/12/25 11:03:15;;;;;;;4.53;1.20;;;;;;;11.01;100.00;99817.69;6048768;28;20030;-74
2023/12/25 11:06:11;;;;;;;5.63;0.80;;;;;;;10.93;100.00;99828.34;6048368;28;20026;-74
2023/12/25 11:09:07;;;;;;;3.95;1.00;;;;;;;10.90;100.00;99837.47;6052288;28;20464;-74
2023/12/25 11:12:02;;;;;;;5.47;1.10;;;;;;;10.88;100.00;99830.69;6052670;28;20030;-75
2023/12/25 11:14:58;;;;;;;5.88;1.00;;;;;;;10.85;100.00;99844.28;6051589;28;20076;-74
2023/12/25 11:17:53;;;;;;;3.35;1.08;;;;;;;10.87;100.00;99840.44;6029925;28;20049;-74
2023/12/25 11:21:03;;;;;;;5.20;1.10;;;;;;;10.90;100.00;99826.06;6049278;28;20036;-75
2023/12/25 11:24:05;;;;;;;2.03;0.75;;;;;;;10.90;100.00;99828.69;6050645;28;20099;-74
2023/12/25 11:27:02;;;;;;;4.10;1.30;;;;;;;10.91;100.00;99825.03;6046284;28;20030;-74
2023/12/25 11:30:08;;;;;;;3.63;1.00;;;;;;;11.14;100.00;99836.59;6031029;28;20366;-74
2023/12/25 11:33:04;;;;;;;2.97;0.90;;;;;;;11.30;100.00;99840.00;6019798;28;20461;-74
2023/12/25 11:36:11;;;;;;;6.63;0.80;;;;;;;11.31;100.00;99868.19;6043432;28;20070;-73
2023/12/25 11:39:09;;;;;;;2.78;1.00;;;;;;;11.31;100.00;99851.44;6049183;28;20034;-74
2023/12/25 11:42:06;;;;;;;4.25;0.70;;;;;;;11.16;100.00;99843.38;6054050;28;20123;-74
2023/12/25 11:45:04;;;;;;;5.63;1.10;;;;;;;11.18;100.00;99853.81;6047277;28;20389;-74
2023/12/25 11:47:59;;;;;;;4.47;1.10;;;;;;;11.12;100.00;99849.19;6016113;28;21322;-74
2023/12/25 11:51:00;;;;;;;3.80;0.87;;;;;;;11.15;100.00;99848.84;6050219;28;20033;-73
2023/12/25 11:53:57;;;;;;;1.42;0.65;;;;;;;11.22;100.00;99844.53;6049566;28;20383;-74
2023/12/25 11:56:53;;;;;;;3.70;0.80;;;;;;;11.19;100.00;99866.09;6053886;28;20037;-74
2023/12/25 11:59:48;;;;;;;2.85;1.02;;;;;;;11.18;100.00;99849.34;6032568;28;20034;-73
2023/12/25 12:02:44;;;;;;;4.10;1.77;;;;;;;11.25;100.00;99852.94;6050360;28;20081;-73
2023/12/25 12:05:45;;;;;;;2.70;0.98;;;;;;;11.30;100.00;99881.66;6046830;28;20512;-74
2023/12/25 12:08:41;;;;;;;1.40;0.52;;;;;;;11.21;100.00;99858.78;6049341;28;20456;-74
2023/12/25 12:11:37;;;;;;;5.00;0.93;;;;;;;11.21;100.00;99866.75;6022005;28;20125;-74
2023/12/25 12:14:36;;;;;;;3.17;0.75;;;;;;;11.07;100.00;99864.78;6033289;28;20485;-74
2023/12/25 12:17:35;;;;;;;2.58;1.00;;;;;;;10.98;100.00;99889.69;6050251;28;20374;-73
2023/12/25 12:20:31;;;;;;;4.68;0.98;;;;;;;11.00;100.00;99882.38;6047989;28;20029;-75
2023/12/25 12:23:27;;;;;;;3.38;0.98;;;;;;;11.06;100.00;99903.75;6048112;28;20033;-74
2023/12/25 12:26:23;;;;;;;4.82;0.80;;;;;;;11.02;100.00;99904.25;6040059;28;20037;-74
2023/12/25 12:29:18;;;;;;;1.75;0.52;;;;;;;10.99;100.00;99870.09;6049698;28;20026;-73
2023/12/25 12:32:14;;;;;;;3.67;0.80;;;;;;;10.92;100.00;99874.44;6048841;28;20408;-73
2023/12/25 12:35:09;;;;;;;5.63;0.80;;;;;;;10.96;100.00;99902.28;6048318;28;20323;-74
2023/12/25 12:38:04;;;;;;;2.22;0.68;;;;;;;10.86;100.00;99891.03;6049112;28;20038;-74
2023/12/25 12:41:03;;;;;;;4.63;0.93;;;;;;;10.81;100.00;99902.16;6049289;28;20121;-74
2023/12/25 12:43:58;;;;;;;3.35;0.70;;;;;;;10.80;100.00;99905.78;6027567;28;20034;-74
2023/12/25 12:46:54;;;;;;;5.15;1.00;;;;;;;10.72;100.00;99898.66;6048288;28;20029;-74
2023/12/25 12:49:52;;;;;;;3.53;0.70;;;;;;;10.59;100.00;99885.09;6049341;28;20367;-75
2023/12/25 12:52:50;;;;;;;3.70;0.80;;;;;;;10.45;100.00;99880.44;6048082;28;20018;-73
2023/12/25 12:55:45;;;;;;;4.03;0.93;;;;;;;10.50;100.00;99911.75;6048366;28;20030;-73
2023/12/25 12:58:43;;;;;;;6.07;1.08;;;;;;;10.51;100.00;99895.69;6049456;28;20057;-73
2023/12/25 13:01:39;;;;;;;4.43;1.02;;;;;;;10.48;100.00;99925.19;6049084;28;20084;-74
2023/12/25 13:04:34;;;;;;;3.60;0.82;;;;;;;10.47;100.00;99920.88;6014645;28;20500;-73
2023/12/25 13:07:30;;;;;;;5.28;1.20;;;;;;;10.45;100.00;99922.88;6049304;28;20052;-74
2023/12/25 13:10:25;;;;;;;4.53;1.13;;;;;;;10.56;100.00;99930.50;6037116;28;20045;-73
2023/12/25 13:13:20;;;;;;;4.63;1.40;;;;;;;10.63;100.00;99933.28;6048740;28;20033;-73
2023/12/25 13:16:18;;;;;;;6.37;1.10;;;;;;;10.59;100.00;99930.16;6047831;28;20056;-74
2023/12/25 13:19:17;;;;;;;4.95;0.98;;;;;;;10.40;100.00;99922.53;6049462;28;20363;-73
2023/12/25 13:22:12;;;;;;;3.92;1.60;;;;;;;10.48;100.00;99929.66;6043385;28;20484;-74
2023/12/25 13:25:07;;;;;;;4.10;0.90;;;;;;;10.43;100.00;99924.03;6047696;28;20113;-73
2023/12/25 13:28:03;;;;;;;4.60;1.20;;;;;;;10.41;100.00;99921.50;6049029;28;20816;-74
2023/12/25 13:30:59;;;;;;;2.80;1.05;;;;;;;10.40;100.00;99919.88;6049544;28;20289;-74
2023/12/25 13:33:54;;;;;;;6.50;1.43;;;;;;;10.44;100.00;99907.09;6031325;28;20084;-74
2023/12/25 13:36:50;;;;;;;6.15;1.00;;;;;;;10.45;100.00;99925.50;6037526;28;20364;-74
2023/12/25 13:39:45;;;;;;;5.85;1.33;;;;;;;10.39;100.00;99952.66;6053282;28;20040;-73
2023/12/25 13:42:41;;;;;;;4.43;1.23;;;;;;;10.44;100.00;99939.75;6045549;28;20060;-73
2023/12/25 13:45:36;;;;;;;4.00;1.10;;;;;;;10.44;100.00;99926.50;6044183;28;20057;-72
2023/12/25 13:48:41;;;;;;;7.13;1.10;;;;;;;10.30;100.00;99927.13;6047689;28;20287;-73
2023/12/25 13:51:36;;;;;;;5.97;0.95;;;;;;;10.32;100.00;99933.13;6046559;28;20076;-73
2023/12/25 13:54:32;;;;;;;7.30;1.10;;;;;;;10.29;100.00;99922.84;6047856;28;20042;-74
2023/12/25 13:57:27;;;;;;;15.47;1.27;;;;;;;10.26;100.00;99922.34;6048282;28;20037;-74